sensor_id;sensor_type;location;lat;lon;timestamp;pressure;altitude;pressure_sealevel;temperature;humidity
30730;BME280;17476;48.458;7.928;2023-04-23T00:01:07;99434.25;;;13.34;100.00
30730;BME280;17476;48.458;7.928;2023-04-23T00:03:35;99434.44;;;13.32;100.00
30730;BME280;17476;48.458;7.928;2023-04-23T00:06:05;99430.63;;;13.35;100.00
30730;BME280;17476;48.458;7.928;2023-04-23T00:08:33;99439.38;;;13.42;100.00
30730;BME280;17476;48.458;7.928;2023-04-23T00:11:00;99439.72;;;13.39;100.00
30730;BME280;17476;48.458;7.928;2023-04-23T00:13:27;99434.28;;;13.41;99.36
30730;BME280;17476;48.458;7.928;2023-04-23T00:15:53;99438.72;;;13.40;100.00
30730;BME280;17476;48.458;7.928;2023-04-23T00:18:19;99441.19;;;13.42;100.00
30730;BME280;17476;48.458;7.928;2023-04-23T00:20:45;99441.75;;;13.37;100.00
30730;BME280;17476;48.458;7.928;2023-04-23T00:23:11;99436.69;;;13.35;100.00
30730;BME280;17476;48.458;7.928;2023-04-23T00:25:36;99440.53;;;13.39;100.00
30730;BME280;17476;48.458;7.928;2023-04-23T00:28:02;99440.56;;;13.46;98.33
30730;BME280;17476;48.458;7.928;2023-04-23T00:30:29;99445.09;;;13.59;97.84
30730;BME280;17476;48.458;7.928;2023-04-23T00:32:54;99444.69;;;13.55;98.58
30730;BME280;17476;48.458;7.928;2023-04-23T00:35:20;99447.88;;;13.51;99.06
30730;BME280;17476;48.458;7.928;2023-04-23T00:37:46;99445.25;;;13.51;99.16
30730;BME280;17476;48.458;7.928;2023-04-23T00:40:12;99444.81;;;13.47;99.47
30730;BME280;17476;48.458;7.928;2023-04-23T00:42:39;99445.22;;;13.44;100.00
30730;BME280;17476;48.458;7.928;2023-04-23T00:45:07;99440.75;;;13.38;100.00
30730;BME280;17476;48.458;7.928;2023-04-23T00:47:34;99447.72;;;13.24;100.00
30730;BME280;17476;48.458;7.928;2023-04-23T00:50:01;99448.94;;;13.22;100.00
30730;BME280;17476;48.458;7.928;2023-04-23T00:52:27;99450.91;;;13.20;100.00
30730;BME280;17476;48.458;7.928;2023-04-23T00:54:54;99440.34;;;13.13;100.00
30730;BME280;17476;48.458;7.928;2023-04-23T00:57:21;99437.47;;;13.01;100.00
30730;BME280;17476;48.458;7.928;2023-04-23T00:59:47;99440.47;;;12.98;100.00
30730;BME280;17476;48.458;7.928;2023-04-23T01:02:14;99432.03;;;13.03;100.00
30730;BME280;17476;48.458;7.928;2023-04-23T01:04:42;99439.34;;;13.07;100.00
30730;BME280;17476;48.458;7.928;2023-04-23T01:07:10;99431.72;;;13.19;100.00
30730;BME280;17476;48.458;7.928;2023-04-23T01:09:36;99437.63;;;13.21;100.00
30730;BME280;17476;48.458;7.928;2023-04-23T01:12:05;99441.09;;;13.28;100.00
30730;BME280;17476;48.458;7.928;2023-04-23T01:14:31;99441.50;;;13.32;100.00
30730;BME280;17476;48.458;7.928;2023-04-23T01:16:57;99446.94;;;13.24;100.00
30730;BME280;17476;48.458;7.928;2023-04-23T01:19:23;99439.97;;;13.16;100.00
30730;BME280;17476;48.458;7.928;2023-04-23T01:21:49;99444.22;;;13.17;100.00
30730;BME280;17476;48.458;7.928;2023-04-23T01:24:16;99453.13;;;13.16;100.00
30730;BME280;17476;48.458;7.928;2023-04-23T01:26:42;99459.75;;;13.12;100.00
30730;BME280;17476;48.458;7.928;2023-04-23T01:29:09;99450.84;;;13.13;100.00
30730;BME280;17476;48.458;7.928;2023-04-23T01:31:36;99448.53;;;13.25;100.00
30730;BME280;17476;48.458;7.928;2023-04-23T01:34:02;99449.78;;;13.29;100.00
30730;BME280;17476;48.458;7.928;2023-04-23T01:36:28;99449.03;;;13.35;100.00
30730;BME280;17476;48.458;7.928;2023-04-23T01:38:54;99448.41;;;13.39;100.00
30730;BME280;17476;48.458;7.928;2023-04-23T01:41:20;99448.41;;;13.39;98.99
30730;BME280;17476;48.458;7.928;2023-04-23T01:43:46;99449.09;;;13.48;99.50
30730;BME280;17476;48.458;7.928;2023-04-23T01:46:12;99452.50;;;13.42;100.00
30730;BME280;17476;48.458;7.928;2023-04-23T01:48:38;99447.63;;;13.39;98.87
30730;BME280;17476;48.458;7.928;2023-04-23T01:51:04;99444.44;;;13.50;98.25
30730;BME280;17476;48.458;7.928;2023-04-23T01:53:30;99441.63;;;13.52;99.22
30730;BME280;17476;48.458;7.928;2023-04-23T01:55:57;99434.94;;;13.49;99.13
30730;BME280;17476;48.458;7.928;2023-04-23T01:58:28;99439.19;;;13.50;97.44
30730;BME280;17476;48.458;7.928;2023-04-23T02:00:53;99439.25;;;13.63;96.42
30730;BME280;17476;48.458;7.928;2023-04-23T02:03:19;99434.22;;;13.69;96.76
30730;BME280;17476;48.458;7.928;2023-04-23T02:05:45;99434.41;;;13.67;96.58
30730;BME280;17476;48.458;7.928;2023-04-23T02:08:11;99436.63;;;13.63;97.10
30730;BME280;17476;48.458;7.928;2023-04-23T02:10:37;99432.75;;;13.59;96.81
30730;BME280;17476;48.458;7.928;2023-04-23T02:13:05;99444.06;;;13.60;96.89
30730;BME280;17476;48.458;7.928;2023-04-23T02:15:31;99430.53;;;13.56;96.43
30730;BME280;17476;48.458;7.928;2023-04-23T02:17:57;99432.16;;;13.57;96.34
30730;BME280;17476;48.458;7.928;2023-04-23T02:20:23;99433.16;;;13.56;96.07
30730;BME280;17476;48.458;7.928;2023-04-23T02:22:49;99443.47;;;13.58;94.53
30730;BME280;17476;48.458;7.928;2023-04-23T02:25:17;99441.66;;;13.58;97.84
30730;BME280;17476;48.458;7.928;2023-04-23T02:27:43;99437.19;;;13.52;97.52
30730;BME280;17476;48.458;7.928;2023-04-23T02:30:10;99432.50;;;13.48;98.15
30730;BME280;17476;48.458;7.928;2023-04-23T02:32:37;99435.88;;;13.35;100.00
30730;BME280;17476;48.458;7.928;2023-04-23T02:35:04;99422.72;;;13.28;100.00
30730;BME280;17476;48.458;7.928;2023-04-23T02:37:34;99407.56;;;13.30;100.00
30730;BME280;17476;48.458;7.928;2023-04-23T02:40:02;99414.97;;;13.20;100.00
30730;BME280;17476;48.458;7.928;2023-04-23T02:42:30;99418.94;;;13.09;100.00
30730;BME280;17476;48.458;7.928;2023-04-23T02:44:56;99409.97;;;12.97;100.00
30730;BME280;17476;48.458;7.928;2023-04-23T02:47:22;99418.44;;;12.99;100.00
30730;BME280;17476;48.458;7.928;2023-04-23T02:49:48;99422.47;;;12.95;100.00
30730;BME280;17476;48.458;7.928;2023-04-23T02:52:14;99418.03;;;12.96;100.00
30730;BME280;17476;48.458;7.928;2023-04-23T02:54:39;99415.56;;;12.88;100.00
30730;BME280;17476;48.458;7.928;2023-04-23T02:57:06;99425.00;;;12.82;100.00
30730;BME280;17476;48.458;7.928;2023-04-23T02:59:31;99427.25;;;12.85;100.00
30730;BME280;17476;48.458;7.928;2023-04-23T03:01:57;99426.38;;;12.78;100.00
30730;BME280;17476;48.458;7.928;2023-04-23T03:04:23;99429.25;;;12.83;100.00
30730;BME280;17476;48.458;7.928;2023-04-23T03:06:49;99428.50;;;12.89;100.00
30730;BME280;17476;48.458;7.928;2023-04-23T03:09:15;99430.50;;;12.87;100.00
30730;BME280;17476;48.458;7.928;2023-04-23T03:11:41;99430.66;;;12.85;100.00
30730;BME280;17476;48.458;7.928;2023-04-23T03:14:07;99434.56;;;12.90;100.00
30730;BME280;17476;48.458;7.928;2023-04-23T03:16:32;99436.97;;;12.91;100.00
30730;BME280;17476;48.458;7.928;2023-04-23T03:18:58;99433.75;;;12.89;100.00
30730;BME280;17476;48.458;7.928;2023-04-23T03:21:25;99445.28;;;12.95;98.60
30730;BME280;17476;48.458;7.928;2023-04-23T03:23:51;99438.44;;;13.00;97.73
30730;BME280;17476;48.458;7.928;2023-04-23T03:26:17;99439.34;;;13.07;96.94
30730;BME280;17476;48.458;7.928;2023-04-23T03:28:43;99436.09;;;13.12;97.38
30730;BME280;17476;48.458;7.928;2023-04-23T03:31:09;99436.50;;;13.09;97.87
30730;BME280;17476;48.458;7.928;2023-04-23T03:33:35;99436.53;;;13.16;98.08
30730;BME280;17476;48.458;7.928;2023-04-23T03:36:01;99432.38;;;13.00;99.50
30730;BME280;17476;48.458;7.928;2023-04-23T03:38:27;99436.41;;;12.96;98.98
30730;BME280;17476;48.458;7.928;2023-04-23T03:40:52;99433.16;;;12.94;99.04
30730;BME280;17476;48.458;7.928;2023-04-23T03:43:18;99438.03;;;12.97;98.37
30730;BME280;17476;48.458;7.928;2023-04-23T03:45:44;99436.22;;;12.97;99.60
30730;BME280;17476;48.458;7.928;2023-04-23T03:48:10;99437.03;;;12.98;98.74
30730;BME280;17476;48.458;7.928;2023-04-23T03:50:36;99431.56;;;12.99;97.18
30730;BME280;17476;48.458;7.928;2023-04-23T03:53:05;99431.41;;;13.01;98.39
30730;BME280;17476;48.458;7.928;2023-04-23T03:55:32;99435.41;;;12.97;98.05
30730;BME280;17476;48.458;7.928;2023-04-23T03:57:58;99432.34;;;12.93;99.27
30730;BME280;17476;48.458;7.928;2023-04-23T04:00:27;99437.75;;;12.85;99.81
30730;BME280;17476;48.458;7.928;2023-04-23T04:02:53;99420.53;;;12.76;100.00
30730;BME280;17476;48.458;7.928;2023-04-23T04:05:19;99422.91;;;12.71;99.30
30730;BME280;17476;48.458;7.928;2023-04-23T04:07:45;99429.34;;;12.68;100.00
30730;BME280;17476;48.458;7.928;2023-04-23T04:10:11;99441.25;;;12.71;98.72
30730;BME280;17476;48.458;7.928;2023-04-23T04:12:37;99439.25;;;12.73;97.69
30730;BME280;17476;48.458;7.928;2023-04-23T04:15:03;99437.41;;;12.67;96.79
30730;BME280;17476;48.458;7.928;2023-04-23T04:17:29;99430.16;;;12.69;97.54
30730;BME280;17476;48.458;7.928;2023-04-23T04:19:55;99439.59;;;12.63;96.42
30730;BME280;17476;48.458;7.928;2023-04-23T04:22:21;99435.16;;;12.64;96.55
30730;BME280;17476;48.458;7.928;2023-04-23T04:24:46;99434.03;;;12.51;98.24
30730;BME280;17476;48.458;7.928;2023-04-23T04:27:13;99432.16;;;12.45;97.84
30730;BME280;17476;48.458;7.928;2023-04-23T04:29:39;99428.91;;;12.43;97.49
30730;BME280;17476;48.458;7.928;2023-04-23T04:32:08;99424.88;;;12.41;97.68
30730;BME280;17476;48.458;7.928;2023-04-23T04:34:34;99430.06;;;12.34;96.73
30730;BME280;17476;48.458;7.928;2023-04-23T04:37:03;99428.44;;;12.33;95.99
30730;BME280;17476;48.458;7.928;2023-04-23T04:39:29;99424.00;;;12.34;95.10
30730;BME280;17476;48.458;7.928;2023-04-23T04:41:55;99422.75;;;12.29;95.17
30730;BME280;17476;48.458;7.928;2023-04-23T04:44:22;99420.94;;;12.30;95.18
30730;BME280;17476;48.458;7.928;2023-04-23T04:46:48;99424.16;;;12.32;94.84
30730;BME280;17476;48.458;7.928;2023-04-23T04:49:13;99437.13;;;12.34;94.96
30730;BME280;17476;48.458;7.928;2023-04-23T04:51:40;99434.84;;;12.30;96.23
30730;BME280;17476;48.458;7.928;2023-04-23T04:54:06;99435.41;;;12.26;95.65
30730;BME280;17476;48.458;7.928;2023-04-23T04:56:33;99435.78;;;12.23;95.49
30730;BME280;17476;48.458;7.928;2023-04-23T04:59:00;99427.50;;;12.19;96.10
30730;BME280;17476;48.458;7.928;2023-04-23T05:01:27;99425.84;;;12.18;96.82
30730;BME280;17476;48.458;7.928;2023-04-23T05:03:54;99430.41;;;12.10;98.66
30730;BME280;17476;48.458;7.928;2023-04-23T05:06:20;99430.13;;;12.05;97.93
30730;BME280;17476;48.458;7.928;2023-04-23T05:08:46;99436.84;;;12.07;96.59
30730;BME280;17476;48.458;7.928;2023-04-23T05:11:16;99435.28;;;12.13;96.06
30730;BME280;17476;48.458;7.928;2023-04-23T05:13:43;99426.84;;;12.17;96.23
30730;BME280;17476;48.458;7.928;2023-04-23T05:16:10;99428.25;;;12.13;97.49
30730;BME280;17476;48.458;7.928;2023-04-23T05:18:37;99419.31;;;12.08;97.13
30730;BME280;17476;48.458;7.928;2023-04-23T05:21:03;99427.09;;;12.01;98.74
30730;BME280;17476;48.458;7.928;2023-04-23T05:23:29;99425.31;;;11.87;100.00
30730;BME280;17476;48.458;7.928;2023-04-23T05:25:55;99418.63;;;11.84;100.00
30730;BME280;17476;48.458;7.928;2023-04-23T05:28:23;99417.53;;;11.93;100.00
30730;BME280;17476;48.458;7.928;2023-04-23T05:30:50;99414.28;;;11.91;100.00
30730;BME280;17476;48.458;7.928;2023-04-23T05:33:16;99414.81;;;12.01;100.00
30730;BME280;17476;48.458;7.928;2023-04-23T05:35:42;99421.34;;;12.12;100.00
30730;BME280;17476;48.458;7.928;2023-04-23T05:38:08;99416.69;;;12.08;100.00
30730;BME280;17476;48.458;7.928;2023-04-23T05:40:35;99419.31;;;12.08;100.00
30730;BME280;17476;48.458;7.928;2023-04-23T05:43:01;99416.50;;;12.09;100.00
30730;BME280;17476;48.458;7.928;2023-04-23T05:45:27;99414.06;;;12.08;100.00
30730;BME280;17476;48.458;7.928;2023-04-23T05:47:52;99416.69;;;12.08;100.00
30730;BME280;17476;48.458;7.928;2023-04-23T05:50:21;99410.84;;;12.12;100.00
30730;BME280;17476;48.458;7.928;2023-04-23T05:52:47;99403.66;;;12.14;100.00
30730;BME280;17476;48.458;7.928;2023-04-23T05:55:13;99409.75;;;12.21;100.00
30730;BME280;17476;48.458;7.928;2023-04-23T05:57:43;99412.31;;;12.36;100.00
30730;BME280;17476;48.458;7.928;2023-04-23T06:00:10;99418.44;;;12.43;100.00
30730;BME280;17476;48.458;7.928;2023-04-23T06:02:37;99408.59;;;12.52;100.00
30730;BME280;17476;48.458;7.928;2023-04-23T06:05:04;99412.09;;;12.59;100.00
30730;BME280;17476;48.458;7.928;2023-04-23T06:07:31;99412.16;;;12.66;100.00
30730;BME280;17476;48.458;7.928;2023-04-23T06:09:56;99409.16;;;12.69;100.00
30730;BME280;17476;48.458;7.928;2023-04-23T06:12:22;99410.63;;;12.78;100.00
30730;BME280;17476;48.458;7.928;2023-04-23T06:14:48;99408.63;;;12.80;100.00
30730;BME280;17476;48.458;7.928;2023-04-23T06:17:14;99403.00;;;12.83;99.32
30730;BME280;17476;48.458;7.928;2023-04-23T06:19:40;99406.91;;;12.94;99.68
30730;BME280;17476;48.458;7.928;2023-04-23T06:22:06;99404.72;;;12.97;99.67
30730;BME280;17476;48.458;7.928;2023-04-23T06:24:32;99408.59;;;13.01;98.33
30730;BME280;17476;48.458;7.928;2023-04-23T06:26:58;99409.63;;;13.07;99.16
30730;BME280;17476;48.458;7.928;2023-04-23T06:29:24;99404.47;;;13.20;98.69
30730;BME280;17476;48.458;7.928;2023-04-23T06:31:49;99398.28;;;13.28;98.39
30730;BME280;17476;48.458;7.928;2023-04-23T06:34:15;99399.53;;;13.38;98.85
30730;BME280;17476;48.458;7.928;2023-04-23T06:36:41;99387.66;;;13.49;98.98
30730;BME280;17476;48.458;7.928;2023-04-23T06:39:08;99392.94;;;13.56;98.22
30730;BME280;17476;48.458;7.928;2023-04-23T06:41:35;99389.13;;;13.65;96.69
30730;BME280;17476;48.458;7.928;2023-04-23T06:44:01;99393.38;;;13.66;95.80
30730;BME280;17476;48.458;7.928;2023-04-23T06:46:26;99384.13;;;13.77;95.98
30730;BME280;17476;48.458;7.928;2023-04-23T06:48:52;99382.13;;;13.85;95.29
30730;BME280;17476;48.458;7.928;2023-04-23T06:51:18;99385.59;;;13.99;94.81
30730;BME280;17476;48.458;7.928;2023-04-23T06:53:44;99386.00;;;14.03;94.56
30730;BME280;17476;48.458;7.928;2023-04-23T06:56:10;99374.88;;;14.07;90.71
30730;BME280;17476;48.458;7.928;2023-04-23T06:58:35;99373.47;;;14.11;93.13
30730;BME280;17476;48.458;7.928;2023-04-23T07:01:02;99368.25;;;14.25;92.28
30730;BME280;17476;48.458;7.928;2023-04-23T07:03:32;99373.09;;;14.34;92.47
30730;BME280;17476;48.458;7.928;2023-04-23T07:05:57;99368.06;;;14.46;91.65
30730;BME280;17476;48.458;7.928;2023-04-23T07:08:23;99362.22;;;14.57;89.55
30730;BME280;17476;48.458;7.928;2023-04-23T07:10:49;99363.59;;;14.73;88.76
30730;BME280;17476;48.458;7.928;2023-04-23T07:13:16;99356.28;;;14.82;90.52
30730;BME280;17476;48.458;7.928;2023-04-23T07:15:42;99359.06;;;15.07;90.79
30730;BME280;17476;48.458;7.928;2023-04-23T07:18:08;99368.72;;;15.33;87.54
30730;BME280;17476;48.458;7.928;2023-04-23T07:20:34;99356.09;;;15.48;85.95
30730;BME280;17476;48.458;7.928;2023-04-23T07:23:00;99361.75;;;15.58;87.13
30730;BME280;17476;48.458;7.928;2023-04-23T07:25:28;99354.09;;;15.88;87.01
30730;BME280;17476;48.458;7.928;2023-04-23T07:27:54;99352.13;;;16.08;81.88
30730;BME280;17476;48.458;7.928;2023-04-23T07:30:22;99353.69;;;16.16;81.71
30730;BME280;17476;48.458;7.928;2023-04-23T07:32:49;99347.28;;;16.30;78.80
30730;BME280;17476;48.458;7.928;2023-04-23T07:35:17;99334.38;;;16.47;80.70
30730;BME280;17476;48.458;7.928;2023-04-23T07:37:43;99339.00;;;16.77;79.87
30730;BME280;17476;48.458;7.928;2023-04-23T07:40:09;99327.69;;;17.06;81.00
30730;BME280;17476;48.458;7.928;2023-04-23T07:42:35;99333.88;;;17.18;74.62
30730;BME280;17476;48.458;7.928;2023-04-23T07:45:01;99320.59;;;17.25;77.19
30730;BME280;17476;48.458;7.928;2023-04-23T07:47:27;99323.75;;;17.64;75.52
30730;BME280;17476;48.458;7.928;2023-04-23T07:49:53;99318.94;;;18.03;74.44
30730;BME280;17476;48.458;7.928;2023-04-23T07:52:19;99317.78;;;17.98;71.53
30730;BME280;17476;48.458;7.928;2023-04-23T07:54:45;99308.94;;;18.28;71.96
30730;BME280;17476;48.458;7.928;2023-04-23T07:57:11;99313.47;;;18.16;69.71
30730;BME280;17476;48.458;7.928;2023-04-23T07:59:37;99312.25;;;18.00;71.29
30730;BME280;17476;48.458;7.928;2023-04-23T08:02:05;99305.16;;;18.47;68.83
30730;BME280;17476;48.458;7.928;2023-04-23T08:04:31;99303.81;;;18.68;65.74
30730;BME280;17476;48.458;7.928;2023-04-23T08:06:57;99303.69;;;18.87;67.63
30730;BME280;17476;48.458;7.928;2023-04-23T08:09:23;99302.34;;;19.13;63.54
30730;BME280;17476;48.458;7.928;2023-04-23T08:11:50;99293.34;;;19.25;65.50
30730;BME280;17476;48.458;7.928;2023-04-23T08:14:17;99289.81;;;19.36;64.73
30730;BME280;17476;48.458;7.928;2023-04-23T08:16:43;99289.63;;;19.55;61.60
30730;BME280;17476;48.458;7.928;2023-04-23T08:19:09;99284.75;;;19.35;63.34
30730;BME280;17476;48.458;7.928;2023-04-23T08:21:36;99279.16;;;19.20;62.15
30730;BME280;17476;48.458;7.928;2023-04-23T08:24:02;99273.44;;;19.11;61.32
30730;BME280;17476;48.458;7.928;2023-04-23T08:26:29;99270.56;;;19.01;61.45
30730;BME280;17476;48.458;7.928;2023-04-23T08:28:55;99263.63;;;19.40;60.27
30730;BME280;17476;48.458;7.928;2023-04-23T08:31:22;99263.41;;;19.42;62.22
30730;BME280;17476;48.458;7.928;2023-04-23T08:33:47;99266.09;;;19.30;62.57
30730;BME280;17476;48.458;7.928;2023-04-23T08:36:13;99260.56;;;19.60;61.83
30730;BME280;17476;48.458;7.928;2023-04-23T08:38:40;99265.97;;;20.15;62.01
30730;BME280;17476;48.458;7.928;2023-04-23T08:41:10;99257.22;;;20.15;59.97
30730;BME280;17476;48.458;7.928;2023-04-23T08:43:45;99263.19;;;20.05;59.08
30730;BME280;17476;48.458;7.928;2023-04-23T08:46:12;99265.97;;;20.15;56.70
30730;BME280;17476;48.458;7.928;2023-04-23T08:48:41;99254.53;;;20.49;53.56
30730;BME280;17476;48.458;7.928;2023-04-23T08:51:09;99245.22;;;20.90;54.57
30730;BME280;17476;48.458;7.928;2023-04-23T08:53:37;99252.09;;;20.86;50.42
30730;BME280;17476;48.458;7.928;2023-04-23T08:56:08;99248.63;;;20.63;49.80
30730;BME280;17476;48.458;7.928;2023-04-23T08:58:34;99242.41;;;21.23;50.85
30730;BME280;17476;48.458;7.928;2023-04-23T09:01:01;99247.13;;;21.38;46.52
30730;BME280;17476;48.458;7.928;2023-04-23T09:03:28;99237.69;;;21.85;43.86
30730;BME280;17476;48.458;7.928;2023-04-23T09:05:55;99232.06;;;21.49;48.62
30730;BME280;17476;48.458;7.928;2023-04-23T09:08:21;99231.63;;;21.30;47.16
30730;BME280;17476;48.458;7.928;2023-04-23T09:10:47;99238.22;;;21.27;49.18
30730;BME280;17476;48.458;7.928;2023-04-23T09:13:14;99234.09;;;21.69;46.99
30730;BME280;17476;48.458;7.928;2023-04-23T09:15:41;99230.22;;;22.19;49.38
30730;BME280;17476;48.458;7.928;2023-04-23T09:18:10;99230.75;;;21.84;48.89
30730;BME280;17476;48.458;7.928;2023-04-23T09:20:36;99227.66;;;21.65;48.10
30730;BME280;17476;48.458;7.928;2023-04-23T09:23:08;99219.41;;;21.98;49.60
30730;BME280;17476;48.458;7.928;2023-04-23T09:25:35;99211.59;;;21.82;47.37
30730;BME280;17476;48.458;7.928;2023-04-23T09:28:07;99208.41;;;21.85;47.65
30730;BME280;17476;48.458;7.928;2023-04-23T09:30:43;99199.72;;;21.99;45.54
30730;BME280;17476;48.458;7.928;2023-04-23T09:33:11;99197.50;;;22.23;49.11
30730;BME280;17476;48.458;7.928;2023-04-23T09:35:38;99196.56;;;22.02;45.30
30730;BME280;17476;48.458;7.928;2023-04-23T09:38:07;99199.06;;;22.19;48.31
30730;BME280;17476;48.458;7.928;2023-04-23T09:40:36;99194.06;;;22.28;46.37
30730;BME280;17476;48.458;7.928;2023-04-23T09:43:04;99193.41;;;22.58;45.95
30730;BME280;17476;48.458;7.928;2023-04-23T09:45:32;99192.25;;;22.39;48.08
30730;BME280;17476;48.458;7.928;2023-04-23T09:48:00;99190.66;;;22.38;44.92
30730;BME280;17476;48.458;7.928;2023-04-23T09:50:38;99193.75;;;22.19;44.24
30730;BME280;17476;48.458;7.928;2023-04-23T09:53:07;99186.16;;;22.48;49.70
30730;BME280;17476;48.458;7.928;2023-04-23T09:55:35;99182.97;;;23.24;45.11
30730;BME280;17476;48.458;7.928;2023-04-23T09:58:05;99180.00;;;23.36;45.16
30730;BME280;17476;48.458;7.928;2023-04-23T10:00:34;99177.34;;;23.41;42.85
30730;BME280;17476;48.458;7.928;2023-04-23T10:03:00;99172.56;;;23.63;43.88
30730;BME280;17476;48.458;7.928;2023-04-23T10:05:26;99172.84;;;23.72;42.77
30730;BME280;17476;48.458;7.928;2023-04-23T10:07:54;99168.53;;;23.10;42.95
30730;BME280;17476;48.458;7.928;2023-04-23T10:10:21;99170.09;;;22.91;45.30
30730;BME280;17476;48.458;7.928;2023-04-23T10:12:47;99159.81;;;22.52;44.75
30730;BME280;17476;48.458;7.928;2023-04-23T10:15:13;99166.22;;;22.61;44.16
30730;BME280;17476;48.458;7.928;2023-04-23T10:17:40;99164.75;;;21.86;44.62
30730;BME280;17476;48.458;7.928;2023-04-23T10:20:07;99156.41;;;22.14;46.24
30730;BME280;17476;48.458;7.928;2023-04-23T10:22:36;99165.31;;;22.98;46.42
30730;BME280;17476;48.458;7.928;2023-04-23T10:25:10;99158.69;;;23.72;44.12
30730;BME280;17476;48.458;7.928;2023-04-23T10:27:39;99155.66;;;24.19;41.82
30730;BME280;17476;48.458;7.928;2023-04-23T10:30:06;99138.06;;;24.13;47.18
30730;BME280;17476;48.458;7.928;2023-04-23T10:32:33;99138.72;;;24.49;41.62
30730;BME280;17476;48.458;7.928;2023-04-23T10:34:59;99135.38;;;25.22;40.50
30730;BME280;17476;48.458;7.928;2023-04-23T10:37:25;99122.84;;;26.04;43.72
30730;BME280;17476;48.458;7.928;2023-04-23T10:40:04;99119.84;;;26.54;41.65
30730;BME280;17476;48.458;7.928;2023-04-23T10:42:34;99114.63;;;27.00;36.70
30730;BME280;17476;48.458;7.928;2023-04-23T10:45:00;99113.81;;;27.37;35.61
30730;BME280;17476;48.458;7.928;2023-04-23T10:47:26;99104.47;;;27.81;38.43
30730;BME280;17476;48.458;7.928;2023-04-23T10:49:52;99108.63;;;27.73;35.37
30730;BME280;17476;48.458;7.928;2023-04-23T10:52:18;99100.78;;;28.05;38.25
30730;BME280;17476;48.458;7.928;2023-04-23T10:54:56;99094.88;;;28.16;36.78
30730;BME280;17476;48.458;7.928;2023-04-23T10:57:22;99092.50;;;28.28;33.97
30730;BME280;17476;48.458;7.928;2023-04-23T10:59:54;99094.00;;;27.93;37.44
30730;BME280;17476;48.458;7.928;2023-04-23T11:02:23;99093.91;;;27.71;35.84
30730;BME280;17476;48.458;7.928;2023-04-23T11:04:57;99089.50;;;26.58;35.13
30730;BME280;17476;48.458;7.928;2023-04-23T11:07:31;99075.47;;;26.00;38.72
30730;BME280;17476;48.458;7.928;2023-04-23T11:10:13;99069.31;;;26.99;38.06
30730;BME280;17476;48.458;7.928;2023-04-23T11:12:40;99058.56;;;27.64;33.55
30730;BME280;17476;48.458;7.928;2023-04-23T11:15:14;99059.16;;;27.88;34.51
30730;BME280;17476;48.458;7.928;2023-04-23T11:22:46;99070.91;;;27.18;34.59
30730;BME280;17476;48.458;7.928;2023-04-23T11:25:24;99059.22;;;27.09;34.83
30730;BME280;17476;48.458;7.928;2023-04-23T11:27:56;99057.59;;;27.73;34.20
30730;BME280;17476;48.458;7.928;2023-04-23T11:30:29;99052.50;;;27.72;35.18
30730;BME280;17476;48.458;7.928;2023-04-23T11:32:56;99048.00;;;26.88;36.24
30730;BME280;17476;48.458;7.928;2023-04-23T11:35:24;99042.38;;;26.71;34.85
30730;BME280;17476;48.458;7.928;2023-04-23T11:37:55;99036.47;;;26.31;35.33
30730;BME280;17476;48.458;7.928;2023-04-23T11:40:22;99036.59;;;26.02;36.40
30730;BME280;17476;48.458;7.928;2023-04-23T11:42:53;99030.72;;;27.13;38.32
30730;BME280;17476;48.458;7.928;2023-04-23T11:45:27;99030.72;;;27.13;35.23
30730;BME280;17476;48.458;7.928;2023-04-23T11:47:55;99030.31;;;27.80;35.31
30730;BME280;17476;48.458;7.928;2023-04-23T11:50:29;99029.88;;;27.59;35.05
30730;BME280;17476;48.458;7.928;2023-04-23T11:53:03;99016.56;;;27.95;34.39
30730;BME280;17476;48.458;7.928;2023-04-23T11:55:29;99010.94;;;28.19;34.78
30730;BME280;17476;48.458;7.928;2023-04-23T11:57:56;99009.56;;;27.26;34.71
30730;BME280;17476;48.458;7.928;2023-04-23T12:00:24;98996.44;;;27.38;33.91
30730;BME280;17476;48.458;7.928;2023-04-23T12:03:04;98983.31;;;27.64;36.40
30730;BME280;17476;48.458;7.928;2023-04-23T12:05:38;98977.03;;;28.46;34.23
30730;BME280;17476;48.458;7.928;2023-04-23T12:08:14;98979.50;;;28.65;32.03
30730;BME280;17476;48.458;7.928;2023-04-23T12:10:53;98977.72;;;27.19;34.09
30730;BME280;17476;48.458;7.928;2023-04-23T12:13:27;98976.59;;;27.06;35.75
30730;BME280;17476;48.458;7.928;2023-04-23T12:16:02;98985.72;;;26.73;35.89
30730;BME280;17476;48.458;7.928;2023-04-23T12:18:52;98980.22;;;25.89;35.87
30730;BME280;17476;48.458;7.928;2023-04-23T12:21:45;98967.66;;;25.41;37.71
30730;BME280;17476;48.458;7.928;2023-04-23T12:24:16;98968.25;;;25.09;38.22
30730;BME280;17476;48.458;7.928;2023-04-23T12:26:42;98966.59;;;25.13;39.06
30730;BME280;17476;48.458;7.928;2023-04-23T12:29:11;98959.53;;;25.46;37.27
30730;BME280;17476;48.458;7.928;2023-04-23T12:31:37;98960.75;;;25.35;38.40
30730;BME280;17476;48.458;7.928;2023-04-23T12:34:08;98949.72;;;25.84;36.59
30730;BME280;17476;48.458;7.928;2023-04-23T12:36:36;98948.84;;;26.64;35.63
30730;BME280;17476;48.458;7.928;2023-04-23T12:39:32;98941.22;;;26.72;37.13
30730;BME280;17476;48.458;7.928;2023-04-23T12:42:06;98940.63;;;26.23;38.03
30730;BME280;17476;48.458;7.928;2023-04-23T12:44:38;98939.66;;;26.33;36.52
30730;BME280;17476;48.458;7.928;2023-04-23T12:47:08;98940.25;;;26.30;35.83
30730;BME280;17476;48.458;7.928;2023-04-23T12:49:38;98938.75;;;26.24;36.03
30730;BME280;17476;48.458;7.928;2023-04-23T12:52:05;98943.47;;;25.46;37.94
30730;BME280;17476;48.458;7.928;2023-04-23T12:54:36;98929.06;;;25.42;39.08
30730;BME280;17476;48.458;7.928;2023-04-23T12:57:05;98937.22;;;25.03;38.78
30730;BME280;17476;48.458;7.928;2023-04-23T12:59:32;98925.16;;;24.47;41.45
30730;BME280;17476;48.458;7.928;2023-04-23T13:01:59;98929.28;;;24.64;39.13
30730;BME280;17476;48.458;7.928;2023-04-23T13:04:33;98925.91;;;24.14;38.57